Time;durP1;ratioP1;P1;durP2;ratioP2;P2;SDS_P1;SDS_P2;PMS_P1;PMS_P2;Temp;Humidity;BMP_temperature;BMP_pressure;BME280_temperature;BME280_humidity;BME280_pressure;Samples;Min_cycle;Max_cycle;Signal;HPM_P1;HPM_P2
2023/12/10 00:00:09;;;;;;;14.57;2.90;;;;;;;7.42;100.00;99787.72;4994963;28;20505;-84
2023/12/10 00:02:35;;;;;;;21.30;3.63;;;;;;;7.48;100.00;99798.81;4995790;28;20026;-84
2023/12/10 00:05:04;;;;;;;13.30;3.00;;;;;;;7.37;100.00;99783.53;4995889;28;20029;-84
2023/12/10 00:07:47;;;;;;;16.67;3.60;;;;;;;7.40;100.00;99786.88;4994935;28;20092;-83
2023/12/10 00:10:21;;;;;;;20.33;3.50;;;;;;;7.57;100.00;99802.06;4995681;28;20391;-84
2023/12/10 00:12:47;;;;;;;21.55;4.55;;;;;;;7.63;100.00;99795.09;4995004;28;20034;-84
2023/12/10 00:15:27;;;;;;;18.93;3.40;;;;;;;7.71;100.00;99800.94;4995034;28;20034;-84
2023/12/10 00:18:05;;;;;;;17.80;3.60;;;;;;;7.71;100.00;99791.44;4995683;28;20034;-84
2023/12/10 00:20:33;;;;;;;17.67;3.95;;;;;;;7.70;100.00;99799.22;4995841;28;20018;-84
2023/12/10 00:23:11;;;;;;;16.27;3.47;;;;;;;7.66;100.00;99792.41;4993913;28;20050;-90
2023/12/10 00:25:45;;;;;;;17.75;3.80;;;;;;;7.72;100.00;99811.22;4990332;28;20109;-84
2023/12/10 00:28:21;;;;;;;16.58;3.40;;;;;;;7.76;100.00;99814.63;4994949;28;20479;-83
2023/12/10 00:30:47;;;;;;;;;;;;;;;7.83;100.00;99830.81;4995906;28;20041;-84
2023/12/10 00:33:15;;;;;;;17.23;3.20;;;;;;;7.69;100.00;99819.06;4995445;28;19950;-84
2023/12/10 00:35:40;;;;;;;17.40;3.45;;;;;;;7.75;100.00;99823.25;4994428;28;20113;-84
2023/12/10 00:38:09;;;;;;;19.70;3.50;;;;;;;7.72;100.00;99816.38;4995570;28;20105;-84
2023/12/10 00:40:37;;;;;;;18.58;3.67;;;;;;;7.85;100.00;99835.09;4984971;23;20043;-84
2023/12/10 00:43:06;;;;;;;22.60;3.78;;;;;;;7.93;100.00;99834.06;4974959;28;20035;-85
2023/12/10 00:45:31;;;;;;;18.05;3.80;;;;;;;7.86;100.00;99836.78;4975986;28;20058;-84
2023/12/10 00:47:56;;;;;;;17.60;3.50;;;;;;;7.87;100.00;99830.75;4976058;28;20470;-84
2023/12/10 00:50:22;;;;;;;17.87;3.10;;;;;;;7.85;100.00;99839.41;4981383;23;20142;-84
2023/12/10 00:52:49;;;;;;;18.53;3.40;;;;;;;7.82;100.00;99842.91;4981665;23;20141;-84
2023/12/10 00:55:15;;;;;;;20.00;3.80;;;;;;;7.77;100.00;99849.03;4975565;28;20031;-84
2023/12/10 00:57:40;;;;;;;16.87;3.20;;;;;;;7.79;100.00;99844.69;4974729;28;20528;-84
2023/12/10 01:00:06;;;;;;;17.63;3.40;;;;;;;7.77;100.00;99860.22;4975941;28;20105;-84
2023/12/10 01:02:32;;;;;;;18.53;3.57;;;;;;;7.70;100.00;99880.16;4975652;28;20102;-84
2023/12/10 01:04:57;;;;;;;19.93;3.60;;;;;;;7.77;100.00;99865.38;4975187;28;20098;-84
2023/12/10 01:07:23;;;;;;;15.77;3.30;;;;;;;7.69;100.00;99872.44;4975651;28;20058;-85
2023/12/10 01:09:48;;;;;;;15.93;3.33;;;;;;;7.67;100.00;99876.75;4974728;28;20027;-84
2023/12/10 01:12:17;;;;;;;20.43;3.90;;;;;;;7.66;100.00;99875.06;4974749;28;20451;-85
2023/12/10 01:14:46;;;;;;;20.38;3.50;;;;;;;7.69;100.00;99869.84;4975495;28;20081;-85
2023/12/10 01:17:13;;;;;;;14.90;3.17;;;;;;;7.60;100.00;99863.09;4975156;28;20413;-84
2023/12/10 01:19:39;;;;;;;17.00;3.40;;;;;;;7.61;100.00;99854.47;4975386;28;20026;-85
2023/12/10 01:22:05;;;;;;;16.00;3.00;;;;;;;7.60;100.00;99872.59;4975667;28;20439;-85
2023/12/10 01:24:30;;;;;;;17.30;3.57;;;;;;;7.64;100.00;99875.09;4974664;28;20590;-84
2023/12/10 01:27:01;;;;;;;15.67;3.80;;;;;;;7.61;100.00;99872.56;4974888;28;20468;-85
2023/12/10 01:29:26;;;;;;;17.00;3.08;;;;;;;7.52;100.00;99863.28;4963791;28;20031;-85
2023/12/10 01:32:13;;;;;;;11.03;2.63;;;;;;;7.55;100.00;99870.94;4974118;28;20385;-84
2023/12/10 01:34:51;;;;;;;16.33;3.20;;;;;;;7.51;100.00;99882.22;4974912;28;20035;-84
2023/12/10 01:37:16;;;;;;;15.73;3.15;;;;;;;7.54;100.00;99894.22;4974851;28;20058;-85
2023/12/10 01:39:50;;;;;;;16.53;2.97;;;;;;;7.59;100.00;99895.00;4973981;28;20062;-85
2023/12/10 01:42:21;;;;;;;15.20;3.22;;;;;;;7.44;100.00;99898.69;4975037;28;20038;-85
2023/12/10 01:44:49;;;;;;;16.52;3.63;;;;;;;7.41;100.00;99873.78;4974430;28;20110;-85
2023/12/10 01:47:15;;;;;;;19.38;3.20;;;;;;;7.45;100.00;99895.22;4973749;28;20027;-85
2023/12/10 01:49:41;;;;;;;19.50;3.80;;;;;;;7.47;100.00;99897.81;4973926;28;20018;-85
2023/12/10 01:52:07;;;;;;;15.03;3.00;;;;;;;7.53;100.00;99919.22;4974017;28;20503;-86
2023/12/10 01:54:33;;;;;;;13.50;2.70;;;;;;;7.42;100.00;99911.63;4973209;28;20042;-86
2023/12/10 01:56:59;;;;;;;17.67;3.35;;;;;;;7.38;100.00;99922.88;4974400;28;20034;-86
2023/12/10 01:59:24;;;;;;;18.30;3.37;;;;;;;7.33;100.00;99914.38;4974115;28;20027;-85
2023/12/10 02:01:50;;;;;;;14.77;3.20;;;;;;;7.34;100.00;99915.22;4974417;28;20031;-85
2023/12/10 02:04:31;;;;;;;15.07;3.40;;;;;;;7.22;100.00;99917.13;4974667;28;20030;-86
2023/12/10 02:07:05;;;;;;;18.25;3.45;;;;;;;7.19;100.00;99906.00;4973620;28;20117;-86
2023/12/10 02:09:36;;;;;;;17.88;3.10;;;;;;;7.18;100.00;99906.88;4974434;28;20027;-85
2023/12/10 02:12:02;;;;;;;10.90;2.40;;;;;;;7.11;100.00;99903.53;4974279;28;20031;-85
2023/12/10 02:14:46;;;;;;;17.17;3.10;;;;;;;7.14;100.00;99925.88;4973521;28;20029;-85
2023/12/10 02:17:12;;;;;;;13.40;2.45;;;;;;;7.07;100.00;99909.66;4974339;28;20038;-85
2023/12/10 02:19:37;;;;;;;13.27;2.83;;;;;;;7.04;100.00;99909.69;4973696;28;20027;-85
2023/12/10 02:22:04;;;;;;;15.17;3.13;;;;;;;7.07;100.00;99919.97;4973417;28;20022;-86
2023/12/10 02:24:46;;;;;;;15.23;3.05;;;;;;;7.02;100.00;99925.19;4973684;28;20110;-85
2023/12/10 02:27:13;;;;;;;14.15;2.40;;;;;;;7.04;100.00;99920.84;4973900;28;20027;-85
2023/12/10 02:29:38;;;;;;;13.90;2.80;;;;;;;7.05;100.00;99930.28;4973387;28;20031;-86
2023/12/10 02:32:08;;;;;;;14.73;3.00;;;;;;;7.04;100.00;99933.75;4974341;28;20027;-86
2023/12/10 02:34:51;;;;;;;12.55;2.38;;;;;;;7.07;100.00;99917.38;4972897;28;20031;-84
2023/12/10 02:37:16;;;;;;;17.20;3.28;;;;;;;6.94;100.00;99925.31;4973793;28;20066;-86
2023/12/10 02:39:50;;;;;;;14.07;3.03;;;;;;;7.03;100.00;99941.53;4973777;28;20038;-85
2023/12/10 02:42:16;;;;;;;14.25;2.90;;;;;;;7.04;100.00;99925.16;4972858;28;20496;-85
2023/12/10 02:44:53;;;;;;;17.73;3.23;;;;;;;7.09;100.00;99931.13;4973963;28;20038;-84
2023/12/10 02:47:18;;;;;;;15.93;3.00;;;;;;;7.02;100.00;99916.59;4973342;28;20106;-85
2023/12/10 02:49:47;;;;;;;12.27;3.00;;;;;;;7.06;100.00;99931.16;4972975;28;20118;-86
2023/12/10 02:53:02;;;;;;;16.20;2.72;;;;;;;7.20;100.00;99956.75;4971275;28;20101;-87
2023/12/10 02:55:28;;;;;;;15.50;3.05;;;;;;;7.19;100.00;99944.72;4973640;28;20085;-87
2023/12/10 02:57:53;;;;;;;15.37;2.60;;;;;;;7.10;100.00;99933.66;4973020;28;20039;-87
2023/12/10 03:00:19;;;;;;;14.97;2.67;;;;;;;7.21;100.00;99951.53;4974032;28;20031;-87
2023/12/10 03:02:53;;;;;;;12.60;3.00;;;;;;;7.17;100.00;99964.53;4972809;28;20110;-87
2023/12/10 03:05:18;;;;;;;16.83;3.33;;;;;;;7.21;100.00;99963.59;4973624;28;20034;-86
2023/12/10 03:07:46;;;;;;;17.50;2.90;;;;;;;7.10;100.00;99951.72;4973974;28;20034;-85
2023/12/10 03:10:12;;;;;;;10.65;2.28;;;;;;;7.18;100.00;99963.66;4973227;28;20022;-86
2023/12/10 03:12:37;;;;;;;12.63;2.67;;;;;;;7.08;100.00;99957.78;4973579;28;20428;-86
2023/12/10 03:15:03;;;;;;;12.43;2.67;;;;;;;7.11;100.00;99961.19;4973419;28;20027;-86
2023/12/10 03:17:37;;;;;;;12.80;3.17;;;;;;;7.16;100.00;99970.56;4972581;28;20554;-87
2023/12/10 03:20:12;;;;;;;16.48;3.03;;;;;;;7.17;100.00;99975.72;4973630;28;20486;-87
2023/12/10 03:22:38;;;;;;;15.48;3.17;;;;;;;7.22;100.00;99966.16;4973368;28;20030;-86
2023/12/10 03:25:06;;;;;;;18.03;3.37;;;;;;;7.15;100.00;99974.03;4972968;28;20098;-86
2023/12/10 03:27:41;;;;;;;18.55;3.00;;;;;;;7.11;100.00;99968.91;4973386;28;20047;-84
2023/12/10 03:30:19;;;;;;;16.90;2.70;;;;;;;7.21;100.00;99972.19;4973651;28;20035;-87
2023/12/10 03:32:50;;;;;;;14.48;2.90;;;;;;;7.29;99.29;99978.97;4972988;28;20433;-87
2023/12/10 03:35:15;;;;;;;16.23;2.80;;;;;;;7.35;100.00;100007.25;4976651;28;20035;-87
2023/12/10 03:37:41;;;;;;;14.20;3.37;;;;;;;7.33;100.00;100001.28;4976975;28;20030;-87
2023/12/10 03:40:07;;;;;;;13.55;3.00;;;;;;;7.28;100.00;99977.28;4976224;28;20432;-85
2023/12/10 03:42:33;;;;;;;20.13;3.10;;;;;;;7.35;98.19;99995.22;4976680;28;20420;-87
2023/12/10 03:44:58;;;;;;;19.90;3.37;;;;;;;7.41;98.29;100013.19;4976390;28;20027;-86
2023/12/10 03:47:36;;;;;;;13.90;3.07;;;;;;;7.42;98.31;100003.72;4977179;28;20023;-86
2023/12/10 03:50:05;;;;;;;15.48;3.22;;;;;;;7.32;98.35;100002.19;4976938;28;20101;-86
2023/12/10 03:52:30;;;;;;;16.70;3.28;;;;;;;7.42;96.44;99993.41;4975788;28;20065;-86
2023/12/10 03:54:58;;;;;;;14.97;3.20;;;;;;;7.40;97.00;100000.31;4976293;28;20030;-86
2023/12/10 03:57:24;;;;;;;16.13;3.10;;;;;;;7.52;96.94;100025.94;4976395;28;20471;-87
2023/12/10 04:00:04;;;;;;;17.20;3.47;;;;;;;7.48;94.62;100003.63;4975813;28;20019;-87
2023/12/10 04:02:39;;;;;;;14.50;2.88;;;;;;;7.55;94.81;100007.78;4976355;28;20110;-87
2023/12/10 04:05:04;;;;;;;16.05;2.95;;;;;;;7.65;95.37;100018.00;4976593;28;20026;-86
2023/12/10 04:07:51;;;;;;;15.70;3.57;;;;;;;7.57;94.39;100011.22;4976017;28;20464;-87
2023/12/10 04:10:37;;;;;;;13.13;2.95;;;;;;;7.66;95.05;100028.28;4976705;28;20114;-86
2023/12/10 04:13:03;;;;;;;11.38;2.67;;;;;;;7.57;94.85;100018.13;4975342;28;20507;-85
2023/12/10 04:15:34;;;;;;;18.17;3.10;;;;;;;7.61;94.09;100022.34;4976189;28;20026;-86
2023/12/10 04:19:01;;;;;;;16.35;3.10;;;;;;;7.72;94.12;100054.00;4976552;28;20015;-86
2023/12/10 04:21:33;;;;;;;18.08;2.95;;;;;;;7.65;93.08;100038.66;4975508;28;20039;-86
2023/12/10 04:24:02;;;;;;;17.90;3.00;;;;;;;7.72;92.59;100055.75;4975889;28;20063;-86
2023/12/10 04:26:36;;;;;;;10.73;2.78;;;;;;;7.72;94.04;100050.59;4976091;28;20027;-86
2023/12/10 04:29:05;;;;;;;17.00;3.00;;;;;;;7.66;91.66;100048.09;4975024;28;20575;-86
2023/12/10 04:31:36;;;;;;;19.95;2.92;;;;;;;7.62;91.14;100030.97;4975994;28;20023;-86
2023/12/10 04:34:08;;;;;;;18.65;3.50;;;;;;;7.71;92.48;100054.03;4975862;28;20034;-86
2023/12/10 04:36:43;;;;;;;13.68;2.70;;;;;;;7.77;92.42;100063.44;4975854;28;20063;-86
2023/12/10 04:39:08;;;;;;;13.88;3.08;;;;;;;7.73;92.05;100070.38;4975595;28;20018;-86
2023/12/10 04:41:34;;;;;;;14.07;3.20;;;;;;;7.73;91.29;100075.53;4974975;28;20077;-86
2023/12/10 04:43:59;;;;;;;15.82;2.97;;;;;;;7.78;91.15;100078.06;4975677;28;20019;-85
2023/12/10 04:46:38;;;;;;;15.90;2.75;;;;;;;7.84;90.56;100089.13;4975699;28;20123;-85
2023/12/10 04:49:21;;;;;;;13.35;2.50;;;;;;;7.78;90.76;100070.31;4975247;28;20118;-86
2023/12/10 04:51:47;;;;;;;10.10;2.40;;;;;;;7.82;91.31;100097.81;4975442;28;20034;-86
2023/12/10 04:54:32;;;;;;;14.03;2.80;;;;;;;7.71;90.87;100079.88;4975679;28;20058;-86
2023/12/10 04:57:15;;;;;;;10.10;2.53;;;;;;;7.81;90.74;100120.19;4974543;28;20061;-86
2023/12/10 04:59:50;;;;;;;13.80;3.05;;;;;;;7.86;90.09;100114.94;4975517;28;20018;-86
2023/12/10 05:02:30;;;;;;;17.00;2.70;;;;;;;7.79;89.34;100121.94;4974829;28;20038;-85
2023/12/10 05:05:08;;;;;;;15.93;2.95;;;;;;;7.81;89.82;100098.69;4975406;28;20389;-85
2023/12/10 05:07:34;;;;;;;15.98;3.40;;;;;;;7.93;88.64;100145.00;4989258;23;20086;-85
2023/12/10 05:10:00;;;;;;;15.85;2.80;;;;;;;7.93;88.39;100128.63;4975135;28;20484;-86
2023/12/10 05:12:25;;;;;;;15.37;2.80;;;;;;;7.92;89.39;100145.00;4975758;28;20106;-85
2023/12/10 05:14:50;;;;;;;17.77;2.97;;;;;;;7.96;88.68;100144.09;4975701;28;20041;-85
2023/12/10 05:17:16;;;;;;;14.30;3.03;;;;;;;7.93;88.69;100145.00;4974978;28;20472;-85
2023/12/10 05:19:41;;;;;;;16.57;3.40;;;;;;;7.94;88.58;100151.00;4975614;28;20106;-86
2023/12/10 05:22:07;;;;;;;13.02;3.30;;;;;;;8.01;88.64;100152.59;4975415;28;20051;-85
2023/12/10 05:24:32;;;;;;;15.60;2.77;;;;;;;7.93;89.48;100159.63;4974369;28;20027;-85
2023/12/10 05:27:09;;;;;;;13.90;2.75;;;;;;;7.95;89.60;100163.88;4975281;28;20086;-85
2023/12/10 05:29:55;;;;;;;13.63;3.15;;;;;;;7.84;89.74;100147.69;4975126;28;20023;-85
2023/12/10 05:32:21;;;;;;;16.05;3.25;;;;;;;7.78;89.30;100161.56;4974658;28;20027;-85
2023/12/10 05:34:46;;;;;;;16.27;2.87;;;;;;;7.85;89.16;100170.06;4974609;28;20419;-85
2023/12/10 05:37:30;;;;;;;14.20;2.80;;;;;;;7.91;88.57;100171.72;4975089;28;20078;-85
2023/12/10 05:40:04;;;;;;;12.77;2.85;;;;;;;7.87;88.58;100153.69;4974523;28;20519;-85
2023/12/10 05:42:39;;;;;;;14.70;3.10;;;;;;;7.82;88.40;100152.06;4974963;28;20030;-85
2023/12/10 05:45:11;;;;;;;15.32;3.05;;;;;;;7.97;88.47;100184.56;4974383;28;20038;-85
2023/12/10 05:47:46;;;;;;;16.20;3.10;;;;;;;7.89;88.20;100169.16;4974647;28;20034;-85
2023/12/10 05:50:35;;;;;;;18.45;2.90;;;;;;;7.93;88.06;100167.38;4974291;28;20122;-85
2023/12/10 05:53:03;;;;;;;13.25;3.10;;;;;;;8.01;89.32;100193.94;5084088;23;20081;-85
2023/12/10 05:55:29;;;;;;;13.68;2.85;;;;;;;8.00;89.23;100216.34;4989519;23;20058;-84
2023/12/10 05:57:55;;;;;;;14.95;2.55;;;;;;;8.06;87.68;100222.31;4973687;28;20081;-84
2023/12/10 06:00:21;;;;;;;12.63;2.80;;;;;;;8.00;89.40;100224.13;4973860;28;20027;-85
2023/12/10 06:02:46;;;;;;;13.93;2.73;;;;;;;8.03;88.18;100223.22;4974305;28;20117;-85
2023/12/10 06:05:12;;;;;;;13.30;2.73;;;;;;;7.97;88.31;100226.72;4974786;28;20066;-84
2023/12/10 06:07:37;;;;;;;16.43;3.23;;;;;;;7.95;88.92;100231.06;4973642;28;20037;-85
2023/12/10 06:10:03;;;;;;;15.37;2.97;;;;;;;8.03;88.27;100233.53;4974673;28;20038;-85
2023/12/10 06:12:28;;;;;;;16.87;3.07;;;;;;;7.89;89.01;100234.59;5036605;23;20042;-86
2023/12/10 06:14:56;;;;;;;15.90;2.90;;;;;;;7.94;89.48;100252.59;4973746;28;20460;-85
2023/12/10 06:17:21;;;;;;;14.63;3.05;;;;;;;7.83;89.46;100221.78;4974578;28;20034;-85
2023/12/10 06:19:49;;;;;;;15.53;3.03;;;;;;;7.95;88.66;100256.91;4973274;28;20066;-86
2023/12/10 06:22:15;;;;;;;15.73;3.00;;;;;;;7.96;89.34;100247.44;4974209;28;20037;-86
2023/12/10 06:24:40;;;;;;;16.17;3.13;;;;;;;7.95;88.07;100261.22;5051482;23;20050;-85
2023/12/10 06:27:10;;;;;;;12.30;2.80;;;;;;;7.87;89.18;100280.28;4974178;28;20468;-85
2023/12/10 06:29:51;;;;;;;15.52;2.80;;;;;;;7.91;88.25;100275.06;4974601;28;20106;-84
2023/12/10 06:32:26;;;;;;;15.75;3.13;;;;;;;7.79;89.05;100270.91;4973863;28;20090;-85
2023/12/10 06:35:10;;;;;;;15.73;3.05;;;;;;;7.80;88.26;100294.13;4973275;28;20034;-85
2023/12/10 06:37:37;;;;;;;16.73;3.22;;;;;;;7.94;88.09;100306.03;4974371;28;20031;-84
2023/12/10 06:40:09;;;;;;;18.00;3.08;;;;;;;7.92;89.19;100300.91;4968428;28;20449;-85
2023/12/10 06:42:35;;;;;;;14.43;2.92;;;;;;;7.95;89.20;100324.09;4987936;23;20134;-85
2023/12/10 06:45:03;;;;;;;14.43;3.07;;;;;;;7.94;89.04;100313.78;4974071;28;20122;-84
2023/12/10 06:47:29;;;;;;;13.48;2.83;;;;;;;7.94;88.64;100326.69;4973781;28;20045;-85
2023/12/10 06:49:55;;;;;;;14.53;2.80;;;;;;;7.93;88.67;100340.50;4972523;28;20480;-85
2023/12/10 06:52:20;;;;;;;13.17;2.93;;;;;;;7.93;88.49;100343.06;4973636;28;20106;-85
2023/12/10 06:54:45;;;;;;;12.43;2.60;;;;;;;7.96;88.69;100332.72;4973604;28;20469;-85
2023/12/10 06:57:11;;;;;;;17.17;2.90;;;;;;;7.97;88.40;100352.50;4973693;28;20465;-84
2023/12/10 06:59:39;;;;;;;14.52;3.42;;;;;;;7.97;88.84;100373.19;4973611;28;20034;-84
2023/12/10 07:02:05;;;;;;;15.88;3.03;;;;;;;7.95;88.61;100368.00;4973102;28;20475;-84
2023/12/10 07:04:33;;;;;;;16.90;3.50;;;;;;;7.97;87.80;100357.69;4972409;28;20043;-85
2023/12/10 07:07:07;;;;;;;11.43;2.97;;;;;;;7.90;89.12;100354.31;4973583;28;20088;-85
2023/12/10 07:09:32;;;;;;;12.80;2.30;;;;;;;7.95;89.61;100372.34;4975006;28;20117;-84
2023/12/10 07:12:01;;;;;;;12.10;2.73;;;;;;;7.91;88.75;100370.66;4981707;28;20117;-84
2023/12/10 07:14:26;;;;;;;14.43;2.75;;;;;;;7.89;88.16;100365.53;4996368;28;20034;-85
2023/12/10 07:16:52;;;;;;;9.17;3.00;;;;;;;7.93;89.82;100372.38;4995528;28;20159;-85
2023/12/10 07:19:17;;;;;;;13.63;2.60;;;;;;;7.85;88.13;100359.53;4996397;28;20034;-84
2023/12/10 07:21:43;;;;;;;12.27;2.60;;;;;;;7.92;88.88;100377.53;4988996;28;20129;-84
2023/12/10 07:24:08;;;;;;;11.98;2.53;;;;;;;7.86;88.14;100369.00;4976426;28;20042;-84
2023/12/10 07:26:33;;;;;;;15.85;3.00;;;;;;;7.93;87.49;100380.13;4977143;28;20031;-84
2023/12/10 07:28:59;;;;;;;12.03;2.50;;;;;;;7.91;88.12;100389.63;4977038;28;20417;-85
2023/12/10 07:31:24;;;;;;;12.40;2.23;;;;;;;7.91;88.20;100383.56;4976439;28;20105;-85
2023/12/10 07:33:52;;;;;;;12.50;2.80;;;;;;;7.91;87.80;100415.47;4976965;28;20031;-85
2023/12/10 07:36:18;;;;;;;13.13;2.45;;;;;;;7.89;87.69;100418.03;4977293;28;20038;-85
2023/12/10 07:38:43;;;;;;;15.33;2.63;;;;;;;7.86;87.26;100419.81;4976022;28;20456;-85
2023/12/10 07:41:08;;;;;;;13.17;2.60;;;;;;;7.92;87.26;100426.63;4976822;28;20380;-85
2023/12/10 07:43:34;;;;;;;13.23;3.07;;;;;;;7.94;87.15;100435.22;4976245;28;20058;-84
2023/12/10 07:46:00;;;;;;;14.27;2.77;;;;;;;7.89;87.85;100430.13;4975903;28;20022;-85
2023/12/10 07:48:40;;;;;;;11.93;2.80;;;;;;;7.89;86.85;100438.72;4973951;28;20039;-85
2023/12/10 07:51:15;;;;;;;15.48;2.50;;;;;;;7.92;87.17;100442.13;4975698;28;20031;-84
2023/12/10 07:53:42;;;;;;;13.98;2.80;;;;;;;7.87;86.59;100455.09;4976392;28;20526;-85
2023/12/10 07:56:07;;;;;;;;;;;;;;;7.97;86.98;100479.97;4969340;28;20042;-85
2023/12/10 07:58:32;;;;;;;17.50;3.33;;;;;;;7.88;86.75;100459.41;4975519;28;19962;-85
2023/12/10 08:01:02;;;;;;;14.33;2.60;;;;;;;7.85;87.91;100462.88;4976469;28;20033;-84
2023/12/10 08:03:27;;;;;;;15.68;2.75;;;;;;;7.88;88.57;100473.16;4975500;28;20506;-84
2023/12/10 08:06:02;;;;;;;13.50;2.77;;;;;;;7.85;88.41;100486.13;4975835;28;20035;-84
2023/12/10 08:08:30;;;;;;;14.07;2.58;;;;;;;7.85;89.28;100487.84;4976831;28;20027;-83
2023/12/10 08:10:55;;;;;;;13.30;3.13;;;;;;;7.74;89.05;100477.63;4976131;28;20026;-86
2023/12/10 08:13:39;;;;;;;14.30;2.90;;;;;;;7.86;89.01;100494.72;4975948;28;20027;-84
2023/12/10 08:16:29;;;;;;;10.40;2.80;;;;;;;7.87;90.22;100507.66;4976408;28;20416;-84
2023/12/10 08:19:02;;;;;;;12.63;2.70;;;;;;;7.83;90.48;100507.66;4981847;28;20043;-84
2023/12/10 08:21:43;;;;;;;14.55;2.80;;;;;;;7.79;91.04;100504.25;4982153;28;20023;-84
2023/12/10 08:24:24;;;;;;;12.27;2.60;;;;;;;7.79;91.36;100514.59;4975926;28;20026;-84
2023/12/10 08:26:49;;;;;;;15.23;2.50;;;;;;;7.78;91.91;100514.63;4965574;23;20349;-84
2023/12/10 08:29:14;;;;;;;15.03;3.20;;;;;;;7.81;91.90;100530.09;4975947;28;20049;-84
2023/12/10 08:31:41;;;;;;;12.37;2.60;;;;;;;7.83;92.48;100536.97;4975706;28;20122;-84
2023/12/10 08:34:06;;;;;;;;;;;;;;;7.82;92.68;100550.75;4975588;28;20037;-86
2023/12/10 08:36:32;;;;;;;14.83;2.67;;;;;;;7.80;93.18;100536.97;4975705;28;19993;-85
2023/12/10 08:38:58;;;;;;;13.52;2.75;;;;;;;7.79;94.33;100540.44;4976247;28;20695;-82
2023/12/10 08:41:23;;;;;;;15.65;3.38;;;;;;;7.78;93.11;100538.72;4975243;28;20483;-84
2023/12/10 08:43:48;;;;;;;13.97;2.80;;;;;;;7.79;93.78;100544.75;4975609;28;20026;-84
2023/12/10 08:46:14;;;;;;;14.00;2.97;;;;;;;7.81;93.89;100538.69;4975541;28;20110;-84
2023/12/10 08:48:42;;;;;;;13.17;2.90;;;;;;;7.79;93.93;100550.78;4975156;28;20349;-83
2023/12/10 08:51:10;;;;;;;13.52;2.85;;;;;;;7.81;94.58;100558.53;4975010;28;20030;-82
2023/12/10 08:53:35;;;;;;;8.18;2.20;;;;;;;7.81;95.38;100561.94;4975512;28;20027;-83
2023/12/10 08:56:03;;;;;;;11.03;2.10;;;;;;;7.82;94.85;100571.41;4974526;28;20030;-83
2023/12/10 08:58:30;;;;;;;11.73;2.67;;;;;;;7.88;94.55;100565.34;4975384;28;20575;-83
2023/12/10 09:00:55;;;;;;;12.10;2.63;;;;;;;7.89;94.60;100565.31;4975114;28;20404;-83
2023/12/10 09:03:20;;;;;;;15.20;2.90;;;;;;;7.92;94.56;100571.34;4974433;28;20031;-83
2023/12/10 09:05:46;;;;;;;11.73;2.60;;;;;;;7.94;94.34;100569.59;4975018;28;20035;-83
2023/12/10 09:08:14;;;;;;;12.60;2.87;;;;;;;7.90;94.30;100571.38;4975256;28;20030;-83
2023/12/10 09:10:39;;;;;;;13.70;2.63;;;;;;;7.89;94.43;100572.22;4974011;28;20022;-83
2023/12/10 09:13:05;;;;;;;13.43;2.67;;;;;;;7.83;94.40;100560.22;4975392;28;20225;-83
2023/12/10 09:15:30;;;;;;;10.67;2.40;;;;;;;7.87;95.04;100577.41;4974567;28;20440;-83
2023/12/10 09:17:55;;;;;;;10.83;2.40;;;;;;;7.89;94.70;100583.41;4974840;28;20027;-83
2023/12/10 09:20:21;;;;;;;14.17;2.93;;;;;;;7.84;94.74;100582.59;4974950;28;20106;-84
2023/12/10 09:22:46;;;;;;;14.53;2.70;;;;;;;7.77;95.45;100580.91;4973578;28;20777;-83
2023/12/10 09:25:14;;;;;;;15.27;3.03;;;;;;;7.78;95.34;100579.22;4974564;28;20109;-83
2023/12/10 09:27:41;;;;;;;12.77;2.70;;;;;;;7.78;95.97;100579.22;4974387;28;20106;-84
2023/12/10 09:30:07;;;;;;;15.85;3.22;;;;;;;7.73;96.14;100587.00;4974567;28;20023;-84
2023/12/10 09:32:32;;;;;;;11.43;2.50;;;;;;;7.72;96.73;100587.88;4974717;28;20042;-84
2023/12/10 09:35:00;;;;;;;10.60;2.60;;;;;;;7.66;96.44;100572.41;4975511;28;20037;-83
2023/12/10 09:37:25;;;;;;;10.95;2.60;;;;;;;7.68;96.75;100581.00;4974407;28;20037;-83
2023/12/10 09:39:57;;;;;;;12.97;3.10;;;;;;;7.69;97.50;100574.97;4974782;28;20026;-83
2023/12/10 09:42:26;;;;;;;9.90;2.65;;;;;;;7.75;97.59;100593.03;4975274;28;20027;-83
2023/12/10 09:44:51;;;;;;;12.90;2.40;;;;;;;7.77;97.78;100582.66;4974324;28;20031;-83
2023/12/10 09:47:17;;;;;;;8.50;2.43;;;;;;;7.78;97.43;100579.22;4974832;28;20118;-83
2023/12/10 09:49:43;;;;;;;10.83;2.67;;;;;;;7.81;98.00;100592.13;4974070;28;20023;-84
2023/12/10 09:52:10;;;;;;;12.60;3.03;;;;;;;7.81;97.89;100590.38;4973702;28;20085;-83
2023/12/10 09:54:42;;;;;;;9.88;2.38;;;;;;;7.85;98.53;100584.31;4974091;28;20038;-83
2023/12/10 09:57:08;;;;;;;11.82;2.33;;;;;;;7.91;98.78;100582.53;4974068;28;20031;-83
2023/12/10 09:59:35;;;;;;;10.80;2.33;;;;;;;7.95;98.64;100579.06;4973398;28;20033;-84
2023/12/10 10:02:04;;;;;;;14.32;2.60;;;;;;;8.00;97.82;100587.63;4973873;28;20098;-83
2023/12/10 10:04:29;;;;;;;13.55;2.60;;;;;;;7.95;98.58;100590.25;4974418;28;20019;-83
2023/12/10 10:06:54;;;;;;;11.23;2.50;;;;;;;8.00;98.77;100585.03;4973663;28;20117;-82
2023/12/10 10:09:20;;;;;;;11.70;2.43;;;;;;;8.01;98.95;100579.88;4974342;28;20117;-83
2023/12/10 10:11:50;;;;;;;11.50;2.30;;;;;;;8.12;98.75;100595.28;4973175;28;20019;-84
2023/12/10 10:14:16;;;;;;;9.73;2.13;;;;;;;8.15;99.29;100582.31;4974178;28;20067;-83
2023/12/10 10:16:48;;;;;;;16.83;2.88;;;;;;;8.24;97.75;100593.44;4974295;28;20102;-83
2023/12/10 10:19:13;;;;;;;13.98;3.10;;;;;;;8.32;97.49;100582.16;4973839;28;20472;-83
2023/12/10 10:21:41;;;;;;;12.07;2.73;;;;;;;8.40;97.38;100564.00;4973926;28;20110;-84
2023/12/10 10:24:09;;;;;;;14.32;2.90;;;;;;;8.49;97.71;100584.59;4974091;28;20443;-84
2023/12/10 10:26:38;;;;;;;15.15;2.92;;;;;;;8.54;96.65;100557.84;4972835;28;20014;-83
2023/12/10 10:29:05;;;;;;;17.00;3.10;;;;;;;8.60;96.18;100560.34;4973822;28;20026;-84
2023/12/10 10:31:37;;;;;;;13.18;2.58;;;;;;;8.63;96.36;100566.34;4973817;28;20031;-84
2023/12/10 10:34:04;;;;;;;13.20;2.60;;;;;;;8.73;96.96;100564.50;4973005;28;20073;-84
2023/12/10 10:36:51;;;;;;;13.65;2.50;;;;;;;8.75;96.99;100569.66;4973617;28;20117;-83
2023/12/10 10:39:36;;;;;;;13.82;2.80;;;;;;;8.68;95.81;100558.50;4974286;28;20030;-84
2023/12/10 10:42:13;;;;;;;14.13;2.87;;;;;;;8.78;94.73;100572.22;4933262;29;20564;-84
2023/12/10 10:44:40;;;;;;;15.07;2.90;;;;;;;8.86;95.69;100587.66;4937263;28;20433;-83
2023/12/10 10:47:07;;;;;;;15.68;2.92;;;;;;;8.92;95.44;100592.72;4977059;28;20023;-84
2023/12/10 10:49:35;;;;;;;10.57;2.30;;;;;;;8.98;95.79;100591.78;4977340;28;20049;-83
2023/12/10 10:52:03;;;;;;;14.30;2.60;;;;;;;9.09;93.63;100592.50;4977556;28;20033;-84
2023/12/10 10:54:31;;;;;;;13.05;2.55;;;;;;;9.09;93.29;100585.63;4976963;28;20097;-83
2023/12/10 10:56:57;;;;;;;12.85;2.70;;;;;;;9.05;92.58;100585.69;4977744;28;20174;-83
2023/12/10 10:59:30;;;;;;;16.37;2.87;;;;;;;9.09;92.89;100579.56;4977808;28;20526;-84
2023/12/10 11:01:58;;;;;;;13.48;2.80;;;;;;;9.08;93.25;100567.50;4976177;28;20030;-83
2023/12/10 11:04:24;;;;;;;11.63;2.70;;;;;;;9.11;93.78;100576.09;4977575;28;20027;-83
2023/12/10 11:06:53;;;;;;;12.17;2.57;;;;;;;9.10;94.49;100578.69;4977606;28;20031;-84
2023/12/10 11:09:18;;;;;;;10.60;2.33;;;;;;;9.14;93.47;100579.50;4976737;28;20130;-84
2023/12/10 11:11:46;;;;;;;12.23;2.50;;;;;;;9.14;93.91;100574.31;4977278;28;20090;-83
2023/12/10 11:14:25;;;;;;;13.27;2.78;;;;;;;9.23;94.08;100569.06;4977458;28;20069;-82
2023/12/10 11:16:59;;;;;;;11.27;2.35;;;;;;;9.37;94.22;100564.50;4976811;28;20042;-79
2023/12/10 11:19:24;;;;;;;12.85;2.67;;;;;;;9.46;92.15;100567.84;4977034;28;20030;-82
2023/12/10 11:21:50;;;;;;;12.37;2.53;;;;;;;9.48;92.24;100563.47;4976664;28;20027;-84
2023/12/10 11:24:16;;;;;;;13.00;2.70;;;;;;;9.49;91.23;100558.31;4976582;28;20019;-84
2023/12/10 11:26:41;;;;;;;15.63;3.17;;;;;;;9.53;89.32;100559.09;4976344;28;20027;-84
2023/12/10 11:29:07;;;;;;;12.17;3.00;;;;;;;9.51;90.90;100558.25;4971944;28;20034;-83
2023/12/10 11:31:34;;;;;;;8.90;2.20;;;;;;;9.49;92.50;100547.94;4975340;28;20518;-84
2023/12/10 11:33:59;;;;;;;11.15;2.60;;;;;;;9.49;92.08;100547.94;4975745;28;20070;-83
2023/12/10 11:36:25;;;;;;;11.93;2.23;;;;;;;9.56;93.00;100553.88;4974952;28;20086;-83